Time;durP1;ratioP1;P1;durP2;ratioP2;P2;SDS_P1;SDS_P2;PMS_P1;PMS_P2;Temp;Humidity;BMP_temperature;BMP_pressure;BME280_temperature;BME280_humidity;BME280_pressure;Samples;Min_cycle;Max_cycle;Signal;HPM_P1;HPM_P2
2021/06/01 00:01:42;;;;;;;4.03;3.25;;;;;;;12.34;61.67;99188.28;5110716;28;20412;-77
2021/06/01 00:04:10;;;;;;;4.38;2.90;;;;;;;12.30;62.35;99190.97;5110893;28;20068;-74
2021/06/01 00:06:37;;;;;;;6.10;3.40;;;;;;;12.39;62.06;99187.22;5110678;28;20069;-74
2021/06/01 00:09:08;;;;;;;4.93;3.25;;;;;;;12.42;61.54;99189.31;5111977;28;20035;-76
2021/06/01 00:11:34;;;;;;;4.63;2.85;;;;;;;12.43;61.59;99182.53;5112144;28;20035;-73
2021/06/01 00:13:59;;;;;;;4.70;3.92;;;;;;;12.38;60.96;99186.41;5111878;28;20030;-77
2021/06/01 00:16:25;;;;;;;10.80;3.70;;;;;;;12.24;62.27;99194.38;5111942;28;20036;-73
2021/06/01 00:18:51;;;;;;;3.83;3.22;;;;;;;12.08;62.69;99190.31;5111921;28;20106;-77
2021/06/01 00:21:17;;;;;;;7.47;3.80;;;;;;;11.97;63.08;99194.72;5110504;28;20127;-77
2021/06/01 00:23:43;;;;;;;3.42;2.95;;;;;;;11.82;63.30;99189.84;5111713;28;20031;-77
2021/06/01 00:26:11;;;;;;;3.42;3.13;;;;;;;11.71;63.35;99183.88;5111507;28;20096;-73
2021/06/01 00:28:38;;;;;;;6.00;3.70;;;;;;;11.63;64.74;99192.03;5111627;28;20020;-77
2021/06/01 00:31:04;;;;;;;4.20;3.13;;;;;;;11.62;63.97;99189.59;5111550;28;20027;-77
2021/06/01 00:33:30;;;;;;;9.23;3.90;;;;;;;11.72;63.94;99189.13;5111600;28;20110;-73
2021/06/01 00:35:56;;;;;;;6.40;4.38;;;;;;;11.80;63.87;99187.38;5111469;28;20153;-73
2021/06/01 00:38:21;;;;;;;8.65;4.60;;;;;;;11.91;63.74;99187.72;5111404;28;20441;-74
2021/06/01 00:40:47;;;;;;;5.05;3.50;;;;;;;11.97;63.52;99188.31;5109882;28;20036;-77
2021/06/01 00:43:12;;;;;;;4.53;3.67;;;;;;;12.04;63.37;99194.16;5110169;28;20518;-77
2021/06/01 00:45:38;;;;;;;9.55;3.75;;;;;;;12.10;62.90;99184.34;5109849;28;20457;-77
2021/06/01 00:48:04;;;;;;;5.40;3.75;;;;;;;12.19;62.69;99181.41;5110911;28;20020;-77
2021/06/01 00:50:30;;;;;;;5.70;3.67;;;;;;;12.10;61.76;99181.56;5111260;28;20481;-77
2021/06/01 00:52:56;;;;;;;10.40;3.65;;;;;;;12.05;62.15;99181.78;5111097;28;20043;-77
2021/06/01 00:55:25;;;;;;;4.03;3.38;;;;;;;12.04;61.67;99180.16;5111050;28;20519;-73
2021/06/01 00:57:51;;;;;;;4.47;3.20;;;;;;;11.98;61.55;99173.94;5110952;28;20115;-77
2021/06/01 01:02:56;;;;;;;3.60;3.30;;;;;;;11.78;61.82;99184.09;5111045;28;20516;-74
2021/06/01 01:05:25;;;;;;;5.07;2.95;;;;;;;11.77;62.20;99183.31;5109744;28;20470;-73
2021/06/01 01:08:19;;;;;;;5.00;3.50;;;;;;;11.79;62.11;99189.38;5111069;28;20031;-73
2021/06/01 01:10:47;;;;;;;3.42;3.13;;;;;;;11.76;62.50;99189.25;5111198;28;20063;-73
2021/06/01 01:13:15;;;;;;;5.00;3.28;;;;;;;11.78;61.87;99184.09;5109458;28;20088;-77
2021/06/01 01:15:42;;;;;;;6.57;3.40;;;;;;;11.80;62.64;99187.38;5110996;28;20032;-76
2021/06/01 01:18:14;;;;;;;9.85;3.83;;;;;;;11.84;62.04;99190.28;5101028;28;20028;-76
2021/06/01 01:20:51;;;;;;;6.80;3.38;;;;;;;11.90;62.08;99195.31;5110709;28;20024;-76
2021/06/01 01:23:21;;;;;;;4.85;3.55;;;;;;;11.84;61.70;99182.72;5110738;28;20119;-77
2021/06/01 01:25:53;;;;;;;4.68;3.80;;;;;;;11.84;61.44;99187.50;5110430;28;20056;-73
2021/06/01 01:28:31;;;;;;;5.00;3.92;;;;;;;11.94;62.13;99173.84;5110817;28;20031;-76
2021/06/01 01:31:02;;;;;;;4.40;3.88;;;;;;;12.01;61.45;99172.41;5111079;28;20119;-76
2021/06/01 01:33:34;;;;;;;4.32;3.88;;;;;;;12.10;61.36;99175.94;5110578;28;20493;-76
2021/06/01 01:36:03;;;;;;;6.78;3.97;;;;;;;12.10;60.91;99170.34;5109304;28;20132;-76
2021/06/01 01:38:30;;;;;;;4.45;4.05;;;;;;;12.06;61.01;99175.00;5110516;28;20019;-77
2021/06/01 01:41:02;;;;;;;6.15;4.35;;;;;;;12.06;61.26;99173.03;5109360;28;20127;-77
2021/06/01 01:43:31;;;;;;;4.85;4.35;;;;;;;12.06;60.89;99160.97;5110511;28;20027;-77
2021/06/01 01:46:13;;;;;;;14.33;4.60;;;;;;;12.18;60.33;99160.16;5110917;28;20081;-73
2021/06/01 01:51:31;;;;;;;5.90;4.85;;;;;;;12.02;59.76;99163.69;5110747;28;20112;-76
2021/06/01 01:54:00;;;;;;;6.32;5.05;;;;;;;12.04;59.90;99168.94;5110383;28;20031;-74
2021/06/01 01:56:34;;;;;;;5.63;5.13;;;;;;;11.96;59.87;99158.66;5109157;28;20038;-77
2021/06/01 01:59:00;;;;;;;6.90;5.50;;;;;;;11.97;60.17;99163.09;5112132;28;20027;-74
2021/06/01 02:01:29;;;;;;;6.82;4.57;;;;;;;12.06;59.50;99159.00;5114638;28;20107;-74
2021/06/01 02:03:55;;;;;;;9.20;4.97;;;;;;;11.96;59.43;99165.06;5112904;28;20027;-77
2021/06/01 02:06:20;;;;;;;7.13;4.68;;;;;;;11.98;60.24;99161.91;5114630;28;20032;-76
2021/06/01 02:08:46;;;;;;;5.85;4.82;;;;;;;11.85;60.88;99161.94;5114205;28;20496;-73
2021/06/01 02:11:12;;;;;;;8.38;6.00;;;;;;;11.93;61.61;99163.78;5114453;28;20110;-76
2021/06/01 02:14:01;;;;;;;5.53;4.50;;;;;;;12.04;60.56;99166.97;5114289;28;20043;-74
2021/06/01 02:16:28;;;;;;;7.47;4.75;;;;;;;11.99;59.96;99163.56;5114432;27;20074;-76
2021/06/01 02:18:53;;;;;;;6.85;4.20;;;;;;;12.05;60.49;99162.16;5112741;28;20035;-73
2021/06/01 02:24:45;;;;;;;5.72;4.95;;;;;;;12.09;59.46;99157.50;5114008;28;20028;-76
2021/06/01 02:27:13;;;;;;;10.55;5.22;;;;;;;12.09;59.95;99157.50;5113849;28;20056;-73
2021/06/01 02:29:44;;;;;;;7.53;4.10;;;;;;;12.14;60.39;99154.44;5113878;28;20028;-73
2021/06/01 02:32:11;;;;;;;5.22;4.72;;;;;;;12.15;60.05;99149.66;5112709;28;20062;-73
2021/06/01 02:34:41;;;;;;;7.20;4.28;;;;;;;12.15;60.38;99155.28;5113700;27;20066;-77
2021/06/01 02:37:08;;;;;;;8.90;4.70;;;;;;;12.10;59.90;99164.72;5112560;28;20028;-73
2021/06/01 02:39:35;;;;;;;8.95;4.70;;;;;;;11.96;59.51;99150.25;5112280;28;20027;-76
2021/06/01 02:42:03;;;;;;;8.02;4.97;;;;;;;11.95;59.56;99155.03;5114133;28;20028;-77
2021/06/01 02:44:30;;;;;;;5.68;5.18;;;;;;;11.92;59.41;99153.72;5113423;28;20111;-77
2021/06/01 02:46:56;;;;;;;5.40;4.90;;;;;;;12.01;59.62;99162.03;5112389;28;20023;-76
2021/06/01 02:49:23;;;;;;;9.00;5.28;;;;;;;11.93;59.79;99160.16;5113505;28;20103;-74
2021/06/01 02:51:50;;;;;;;6.95;5.30;;;;;;;11.94;59.77;99154.22;5113553;28;20039;-73
2021/06/01 02:54:16;;;;;;;6.25;4.75;;;;;;;11.86;60.06;99157.97;5112207;28;20031;-76
2021/06/01 02:56:42;;;;;;;9.90;5.15;;;;;;;11.91;59.99;99159.72;5113489;28;20051;-77
2021/06/01 02:59:08;;;;;;;9.75;6.13;;;;;;;11.84;60.07;99160.31;5113319;28;20477;-73
2021/06/01 03:01:34;;;;;;;10.55;4.97;;;;;;;11.72;60.04;99165.91;5113374;28;20116;-72
2021/06/01 03:04:00;;;;;;;7.47;5.80;;;;;;;11.63;61.05;99166.84;5112013;28;20038;-72
2021/06/01 03:06:27;;;;;;;5.70;4.90;;;;;;;11.58;61.18;99169.03;5113411;28;20040;-73
2021/06/01 03:08:53;;;;;;;7.07;4.97;;;;;;;11.55;61.05;99167.75;5112713;28;20555;-77
2021/06/01 03:11:20;;;;;;;6.90;5.05;;;;;;;11.34;61.24;99168.69;5113372;28;20110;-74
2021/06/01 03:13:51;;;;;;;5.57;5.00;;;;;;;11.34;60.50;99165.06;5112926;28;20031;-77
2021/06/01 03:16:17;;;;;;;16.90;5.75;;;;;;;11.47;60.51;99168.69;5113202;27;20120;-76
2021/06/01 03:18:43;;;;;;;8.40;5.72;;;;;;;11.45;61.07;99168.22;5111530;28;20032;-74
2021/06/01 03:21:10;;;;;;;8.60;4.90;;;;;;;11.56;60.60;99168.59;5113103;28;20538;-76
2021/06/01 03:23:35;;;;;;;6.88;5.78;;;;;;;11.60;60.06;99169.50;5111505;28;20512;-77
2021/06/01 03:26:03;;;;;;;8.07;5.85;;;;;;;11.57;60.30;99165.41;5112503;28;20048;-77
2021/06/01 03:28:28;;;;;;;6.05;5.32;;;;;;;11.62;60.64;99170.81;5112934;28;20401;-77
2021/06/01 03:30:54;;;;;;;13.02;5.53;;;;;;;11.78;60.07;99161.69;5112691;28;20028;-73
2021/06/01 03:33:20;;;;;;;7.15;5.22;;;;;;;11.85;60.14;99169.50;5112704;28;20020;-74
2021/06/01 03:35:45;;;;;;;10.48;5.35;;;;;;;11.94;60.80;99168.25;5111196;28;20032;-78
2021/06/01 03:38:11;;;;;;;9.13;5.47;;;;;;;11.96;60.35;99164.25;5111087;28;20015;-74
2021/06/01 03:40:37;;;;;;;7.55;5.78;;;;;;;11.95;61.05;99166.22;5112589;28;20032;-73
2021/06/01 03:43:03;;;;;;;10.25;5.20;;;;;;;12.00;60.88;99165.19;5111939;28;20023;-75
2021/06/01 03:45:29;;;;;;;25.50;5.70;;;;;;;12.11;61.10;99171.16;5111259;28;20137;-76
2021/06/01 03:47:54;;;;;;;9.88;4.82;;;;;;;12.20;61.00;99169.03;5112034;28;20027;-76
2021/06/01 03:50:21;;;;;;;8.23;4.93;;;;;;;12.16;60.63;99168.91;5111919;28;20489;-76
2021/06/01 03:52:47;;;;;;;5.90;5.07;;;;;;;12.19;61.03;99168.22;5112048;27;20034;-76
2021/06/01 03:55:14;;;;;;;11.80;5.50;;;;;;;12.11;61.40;99169.16;5111949;28;20036;-76
2021/06/01 03:57:39;;;;;;;10.23;4.85;;;;;;;12.21;60.91;99165.06;5112024;28;20477;-76
2021/06/01 04:00:10;;;;;;;8.02;4.68;;;;;;;12.25;60.64;99162.38;5112079;28;21130;-73
2021/06/01 04:02:36;;;;;;;7.35;5.63;;;;;;;12.24;61.26;99164.34;5110333;28;20453;-73
2021/06/01 04:05:03;;;;;;;6.57;5.25;;;;;;;12.28;61.48;99161.66;5110292;28;20592;-73
2021/06/01 04:07:28;;;;;;;9.23;5.65;;;;;;;12.38;60.51;99151.94;5111691;28;20030;-76
2021/06/01 04:09:54;;;;;;;10.95;5.65;;;;;;;12.39;60.34;99154.38;5111974;28;20653;-73
2021/06/01 04:12:19;;;;;;;8.55;5.95;;;;;;;12.41;59.77;99154.84;5111912;28;20023;-73
2021/06/01 04:14:45;;;;;;;8.48;5.80;;;;;;;12.43;61.00;99144.09;5111819;28;20046;-76
2021/06/01 04:17:10;;;;;;;14.55;6.18;;;;;;;12.50;61.12;99149.09;5111538;28;20019;-75
2021/06/01 04:19:35;;;;;;;8.80;5.65;;;;;;;12.48;61.11;99138.22;5111478;28;20027;-76
2021/06/01 04:22:01;;;;;;;7.78;5.45;;;;;;;12.62;61.54;99142.63;5111327;28;20024;-76
2021/06/01 04:24:28;;;;;;;10.88;5.50;;;;;;;12.70;59.99;99146.44;5111661;28;20028;-77
2021/06/01 04:26:58;;;;;;;13.13;6.07;;;;;;;12.72;59.90;99144.09;5110158;28;20313;-76
2021/06/01 04:29:24;;;;;;;7.18;5.88;;;;;;;12.73;60.78;99146.53;5111423;28;20023;-73
2021/06/01 04:31:50;;;;;;;10.60;5.65;;;;;;;12.72;60.74;99147.72;5110297;28;20042;-73
2021/06/01 04:34:16;;;;;;;6.50;5.40;;;;;;;12.78;61.56;99142.66;5110124;28;20076;-74
2021/06/01 04:36:42;;;;;;;6.63;5.10;;;;;;;12.87;61.23;99142.50;5110184;28;20042;-76
2021/06/01 04:39:07;;;;;;;6.35;5.35;;;;;;;12.91;59.49;99140.59;5111628;28;20020;-76
2021/06/01 04:41:33;;;;;;;39.47;7.28;;;;;;;12.80;60.63;99145.94;5111093;28;20077;-76
2021/06/01 04:43:58;;;;;;;9.30;6.13;;;;;;;12.84;60.63;99146.03;5110234;28;20189;-78
2021/06/01 04:46:24;;;;;;;6.93;6.15;;;;;;;12.90;60.99;99141.78;5097069;28;20028;-73
2021/06/01 04:48:51;;;;;;;7.28;5.90;;;;;;;12.98;60.19;99149.22;5111305;28;20034;-73
2021/06/01 04:51:17;;;;;;;7.63;5.57;;;;;;;12.89;59.43;99142.94;5111327;28;20035;-73
2021/06/01 04:53:54;;;;;;;8.65;6.55;;;;;;;12.82;60.75;99151.19;5111275;28;20062;-77
2021/06/01 04:56:21;;;;;;;10.48;5.38;;;;;;;12.98;60.02;99140.81;5109749;28;20052;-76
2021/06/01 04:58:46;;;;;;;6.55;5.88;;;;;;;13.00;59.33;99135.66;5110839;28;20106;-73
2021/06/01 05:01:12;;;;;;;7.20;5.60;;;;;;;13.23;58.77;99137.84;5111333;28;20043;-73
2021/06/01 05:03:38;;;;;;;15.15;5.85;;;;;;;13.34;58.52;99140.94;5110912;28;20035;-75
2021/06/01 05:06:05;;;;;;;6.15;5.53;;;;;;;13.58;56.57;99144.78;5111262;28;20401;-72
2021/06/01 05:08:30;;;;;;;11.60;5.47;;;;;;;13.62;57.18;99138.06;5110864;28;20030;-79
2021/06/01 05:10:56;;;;;;;6.00;5.28;;;;;;;13.75;55.79;99143.56;5111260;28;20028;-74
2021/06/01 05:13:21;;;;;;;8.88;5.50;;;;;;;13.77;55.84;99138.41;5109840;28;20020;-76
2021/06/01 05:15:49;;;;;;;6.05;5.45;;;;;;;13.80;56.37;99142.47;5109683;28;20023;-75
2021/06/01 05:18:15;;;;;;;15.85;7.57;;;;;;;13.71;57.01;99143.50;5110816;28;20039;-79
2021/06/01 05:20:40;;;;;;;7.95;6.25;;;;;;;13.59;57.88;99130.34;5110766;28;20030;-75
2021/06/01 05:23:06;;;;;;;11.85;8.43;;;;;;;13.72;58.73;99141.50;5109623;28;20024;-73
2021/06/01 05:25:31;;;;;;;13.35;6.75;;;;;;;13.76;57.92;99140.41;5110516;28;20106;-75
2021/06/01 05:27:57;;;;;;;8.07;6.60;;;;;;;13.62;57.36;99146.47;5109771;28;20055;-76
2021/06/01 05:30:33;;;;;;;10.00;6.22;;;;;;;13.53;58.77;99137.44;5109573;28;20036;-73
2021/06/01 05:33:19;;;;;;;9.45;6.43;;;;;;;13.69;59.25;99139.41;5112511;28;20027;-77
2021/06/01 05:35:53;;;;;;;7.10;5.70;;;;;;;13.75;58.83;99140.75;5115200;28;20032;-78
2021/06/01 05:38:24;;;;;;;7.60;5.63;;;;;;;13.79;58.02;99129.59;5114833;28;20408;-72
2021/06/01 05:40:51;;;;;;;7.97;5.70;;;;;;;13.76;57.99;99129.16;5106775;28;20097;-79
2021/06/01 05:43:16;;;;;;;8.95;5.82;;;;;;;13.74;58.73;99133.50;5110692;28;20019;-74
2021/06/01 05:45:42;;;;;;;7.60;5.72;;;;;;;13.75;58.68;99133.16;5112824;28;20386;-71
2021/06/01 05:48:09;;;;;;;7.28;5.55;;;;;;;13.76;59.28;99134.78;5113432;28;20490;-77
2021/06/01 05:50:35;;;;;;;15.70;6.88;;;;;;;13.94;59.72;99130.75;5114611;28;20032;-76
2021/06/01 05:53:01;;;;;;;6.68;5.63;;;;;;;14.01;59.52;99140.16;5114554;27;20028;-72
2021/06/01 05:55:28;;;;;;;7.40;5.30;;;;;;;13.97;59.52;99128.03;5113129;28;20436;-78
2021/06/01 05:57:53;;;;;;;14.02;5.97;;;;;;;14.03;59.41;99137.00;5114572;28;20381;-73
2021/06/01 06:00:23;;;;;;;7.13;5.28;;;;;;;14.14;58.56;99128.78;5113562;28;20069;-71
2021/06/01 06:02:48;;;;;;;7.43;5.10;;;;;;;14.06;58.79;99133.44;5105143;28;20046;-74
2021/06/01 06:05:14;;;;;;;9.68;5.53;;;;;;;14.21;59.88;99130.94;5111358;28;20023;-71
2021/06/01 06:07:40;;;;;;;25.63;6.13;;;;;;;14.28;60.47;99131.91;5112316;28;20096;-73
2021/06/01 06:10:07;;;;;;;9.40;5.47;;;;;;;14.36;59.15;99132.91;5111053;28;20019;-72
2021/06/01 06:12:34;;;;;;;7.60;4.68;;;;;;;14.41;58.38;99128.97;5112117;28;20042;-74
2021/06/01 06:15:00;;;;;;;5.95;5.07;;;;;;;14.33;57.92;99128.00;5112062;28;20027;-70
2021/06/01 06:17:25;;;;;;;14.80;5.43;;;;;;;14.33;58.54;99128.00;5111821;28;20745;-71
2021/06/01 06:19:51;;;;;;;6.43;4.10;;;;;;;14.43;59.02;99126.63;5110656;28;20331;-71
2021/06/01 06:22:16;;;;;;;6.20;3.47;;;;;;;14.38;57.56;99126.91;5110788;28;20084;-73
2021/06/01 06:24:42;;;;;;;6.22;3.60;;;;;;;14.36;57.31;99116.03;5114021;27;20508;-72
2021/06/01 06:27:07;;;;;;;4.35;3.45;;;;;;;14.44;58.50;99125.44;5113976;28;20048;-72
2021/06/01 06:29:32;;;;;;;4.47;3.90;;;;;;;14.53;59.45;99128.81;5113842;28;20032;-74
2021/06/01 06:32:00;;;;;;;12.48;4.68;;;;;;;14.57;58.46;99121.28;5114434;28;20054;-74
2021/06/01 06:34:25;;;;;;;10.82;3.83;;;;;;;14.74;58.05;99131.31;5113790;28;20016;-73
2021/06/01 06:36:51;;;;;;;6.10;3.75;;;;;;;14.79;56.69;99133.00;5114047;28;20404;-71
2021/06/01 06:39:16;;;;;;;4.07;3.75;;;;;;;14.83;57.76;99139.53;5113833;28;20478;-72
2021/06/01 06:41:41;;;;;;;4.38;3.97;;;;;;;14.97;57.70;99138.16;5113981;28;20024;-71
2021/06/01 06:44:09;;;;;;;8.13;3.67;;;;;;;14.90;56.08;99132.38;5112971;28;20034;-72
2021/06/01 06:46:41;;;;;;;6.97;4.10;;;;;;;14.91;56.69;99134.03;5112118;28;20100;-72
2021/06/01 06:49:08;;;;;;;5.78;4.25;;;;;;;15.08;56.51;99139.19;5113574;28;20084;-73
2021/06/01 06:51:34;;;;;;;5.47;4.07;;;;;;;15.13;56.87;99136.03;5113571;28;20039;-71
2021/06/01 06:54:00;;;;;;;10.20;4.88;;;;;;;15.10;57.16;99133.97;5113626;28;20103;-73
2021/06/01 06:56:28;;;;;;;5.03;4.50;;;;;;;15.14;56.46;99134.06;5113026;28;20055;-79
2021/06/01 06:58:55;;;;;;;5.38;3.53;;;;;;;15.23;55.29;99136.63;5114102;27;20022;-73
2021/06/01 07:01:21;;;;;;;11.68;7.28;;;;;;;15.22;53.55;99135.00;5113635;28;20418;-73
2021/06/01 07:03:47;;;;;;;7.47;4.18;;;;;;;15.37;54.53;99133.25;5113299;28;20023;-72
2021/06/01 07:06:14;;;;;;;4.47;4.07;;;;;;;15.28;52.86;99144.78;5111936;28;20035;-76
2021/06/01 07:08:40;;;;;;;4.40;4.00;;;;;;;15.25;53.57;99134.25;5113018;28;20051;-73
2021/06/01 07:11:05;;;;;;;10.48;4.50;;;;;;;15.27;53.76;99135.50;5113401;28;20362;-76
2021/06/01 07:13:39;;;;;;;4.10;3.60;;;;;;;15.39;53.36;99139.31;5112660;27;20032;-75
2021/06/01 07:16:05;;;;;;;5.18;3.67;;;;;;;15.60;50.88;99132.44;5112885;28;20545;-72
2021/06/01 07:18:31;;;;;;;12.35;4.93;;;;;;;15.61;50.25;99139.69;5112747;28;20023;-77
2021/06/01 07:21:00;;;;;;;4.32;3.47;;;;;;;15.54;49.16;99129.91;5111498;28;20031;-72
2021/06/01 07:23:25;;;;;;;4.00;3.58;;;;;;;15.55;50.16;99134.34;5111393;28;20035;-77
2021/06/01 07:25:50;;;;;;;10.48;5.35;;;;;;;15.94;52.50;99136.22;5110800;28;20052;-67
2021/06/01 07:28:16;;;;;;;4.60;2.58;;;;;;;16.33;52.34;99121.03;5111389;28;20028;-72
2021/06/01 07:30:41;;;;;;;6.82;3.30;;;;;;;16.14;49.73;99136.09;5112662;28;20039;-72
2021/06/01 07:33:07;;;;;;;4.93;3.05;;;;;;;15.83;50.94;99132.38;5111172;28;20020;-76
2021/06/01 07:35:32;;;;;;;5.00;2.78;;;;;;;16.06;52.41;99138.00;5112444;28;20452;-72
2021/06/01 07:37:58;;;;;;;12.00;2.83;;;;;;;16.32;51.36;99133.53;5112256;28;20034;-74
2021/06/01 07:40:24;;;;;;;14.77;3.03;;;;;;;16.49;50.59;99136.97;5111036;28;20027;-73
2021/06/01 07:42:50;;;;;;;4.78;2.20;;;;;;;16.23;50.82;99135.81;5110936;28;20039;-72
2021/06/01 07:45:15;;;;;;;3.15;2.63;;;;;;;16.00;51.91;99142.34;5112370;28;20118;-73
2021/06/01 07:47:42;;;;;;;6.43;3.60;;;;;;;15.96;52.18;99144.31;5112177;28;20057;-71
2021/06/01 07:50:08;;;;;;;4.28;3.20;;;;;;;16.00;53.47;99131.88;5110651;28;20020;-71
2021/06/01 07:52:33;;;;;;;4.03;3.42;;;;;;;15.95;52.75;99134.22;5110759;28;20028;-72
2021/06/01 07:54:59;;;;;;;10.88;3.63;;;;;;;16.03;53.07;99135.94;5111917;28;20038;-72
2021/06/01 07:57:24;;;;;;;6.43;3.20;;;;;;;16.11;51.92;99140.50;5110873;28;20043;-73
2021/06/01 07:59:50;;;;;;;4.47;2.63;;;;;;;16.35;52.68;99121.47;5111845;28;20028;-70
2021/06/01 08:02:16;;;;;;;4.55;2.95;;;;;;;16.49;51.53;99123.69;5111412;28;20058;-71
2021/06/01 08:04:42;;;;;;;6.70;3.28;;;;;;;16.71;50.72;99129.56;5111588;28;20032;-72
2021/06/01 08:07:11;;;;;;;5.50;3.15;;;;;;;17.01;48.95;99119.44;5112015;28;20374;-71
2021/06/01 08:09:36;;;;;;;7.38;3.38;;;;;;;17.25;51.06;99121.72;5103308;28;20035;-70
2021/06/01 08:12:03;;;;;;;6.00;2.78;;;;;;;17.11;45.58;99125.22;5107430;28;20027;-72
2021/06/01 08:14:29;;;;;;;2.50;2.10;;;;;;;16.86;46.04;99112.81;5111740;27;20032;-73
2021/06/01 08:16:54;;;;;;;5.13;2.55;;;;;;;17.11;46.92;99119.56;5111811;28;20038;-73
2021/06/01 08:19:29;;;;;;;4.60;2.58;;;;;;;17.31;45.38;99121.34;5109493;28;20453;-74
2021/06/01 08:22:04;;;;;;;3.92;2.60;;;;;;;17.25;46.12;99124.53;5111792;28;20050;-73
2021/06/01 08:24:30;;;;;;;2.53;2.00;;;;;;;17.31;44.99;99118.53;5111610;28;20446;-71
2021/06/01 08:26:55;;;;;;;2.25;1.90;;;;;;;17.13;44.78;99119.16;5109903;28;20527;-71
2021/06/01 08:29:21;;;;;;;8.90;2.80;;;;;;;17.20;46.89;99121.25;5100173;28;20057;-71
2021/06/01 08:31:47;;;;;;;4.15;2.10;;;;;;;17.45;45.92;99115.81;5111747;28;20039;-73
2021/06/01 08:34:13;;;;;;;8.00;2.35;;;;;;;17.59;46.07;99120.78;5111389;28;20034;-74
2021/06/01 08:36:39;;;;;;;9.25;2.67;;;;;;;17.51;45.96;99113.44;5111393;27;20059;-73
2021/06/01 08:39:06;;;;;;;3.00;2.40;;;;;;;17.51;47.22;99130.41;5107215;28;20024;-72
2021/06/01 08:41:33;;;;;;;2.67;2.47;;;;;;;17.74;47.68;99121.72;5093828;28;20024;-73
2021/06/01 08:44:01;;;;;;;5.15;2.22;;;;;;;17.81;46.85;99116.09;5111222;28;20063;-71
2021/06/01 08:46:27;;;;;;;2.50;2.17;;;;;;;17.63;48.03;99121.63;5111202;28;20034;-72
2021/06/01 08:48:54;;;;;;;7.97;2.38;;;;;;;17.54;46.42;99118.31;5110384;28;20027;-73
2021/06/01 08:51:21;;;;;;;2.55;2.35;;;;;;;17.43;48.34;99120.22;5100042;28;20632;-71
2021/06/01 08:53:48;;;;;;;2.42;2.22;;;;;;;17.14;49.79;99117.16;5107089;28;20436;-74
2021/06/01 08:56:14;;;;;;;2.40;2.20;;;;;;;16.98;49.12;99121.00;5103864;28;20039;-72
2021/06/01 08:58:42;;;;;;;3.03;2.75;;;;;;;16.86;48.76;99113.59;5110759;28;20046;-74
2021/06/01 09:01:07;;;;;;;2.97;2.38;;;;;;;16.73;50.38;99124.38;5099200;28;20488;-74
2021/06/01 09:03:34;;;;;;;7.55;4.28;;;;;;;16.84;49.81;99122.47;5105606;28;20032;-72
2021/06/01 09:06:04;;;;;;;12.23;8.57;;;;;;;16.74;51.58;99126.00;5111014;28;20084;-72
2021/06/01 09:22:38;;;;;;;3.33;2.55;;;;;;;17.80;44.33;99114.47;5045275;28;20099;-79
2021/06/01 09:25:10;;;;;;;5.38;1.10;;;;;;;17.62;45.00;99111.53;5092959;28;20042;-75
2021/06/01 09:27:55;;;;;;;6.03;1.50;;;;;;;17.53;44.32;99109.03;5107405;28;20220;-75
2021/06/01 09:30:40;;;;;;;2.00;1.50;;;;;;;17.47;47.31;99107.75;5108657;28;20058;-74
2021/06/01 09:33:15;;;;;;;2.00;1.55;;;;;;;17.32;46.17;99111.66;5109983;28;20076;-74
2021/06/01 09:35:52;;;;;;;7.20;1.60;;;;;;;17.19;46.33;99111.13;5108899;28;20085;-78
2021/06/01 09:38:20;;;;;;;1.65;1.55;;;;;;;16.89;44.59;99114.84;5109096;28;20467;-78
2021/06/01 09:40:47;;;;;;;5.00;1.50;;;;;;;16.87;45.81;99105.94;5109369;28;20122;-78
2021/06/01 09:43:15;;;;;;;2.00;1.83;;;;;;;16.89;46.93;99103.53;5110160;28;20046;-75
2021/06/01 09:45:43;;;;;;;11.10;2.55;;;;;;;17.08;48.34;99119.50;5110413;28;20032;-74
2021/06/01 09:48:10;;;;;;;7.18;1.42;;;;;;;16.74;47.90;99111.88;5108931;28;20111;-77
2021/06/01 09:53:25;;;;;;;2.90;1.30;;;;;;;16.57;50.02;99116.09;5110622;28;20548;-74
2021/06/01 09:55:50;;;;;;;6.13;1.90;;;;;;;16.29;50.14;99114.56;5110669;28;20123;-73
2021/06/01 09:58:36;;;;;;;4.47;1.65;;;;;;;15.94;49.83;99116.47;5110092;28;20126;-75
2021/06/01 10:01:04;;;;;;;4.15;1.77;;;;;;;15.84;49.74;99117.09;5110444;28;20055;-75
2021/06/01 10:03:50;;;;;;;9.23;1.83;;;;;;;15.62;53.06;99121.59;5110097;28;20034;-77
2021/06/01 10:06:16;;;;;;;3.47;2.30;;;;;;;15.47;57.32;99115.72;5110472;28;20073;-73
2021/06/01 10:08:45;;;;;;;2.08;1.90;;;;;;;15.35;57.83;99115.91;5110308;28;20431;-78
2021/06/01 10:11:12;;;;;;;3.20;2.00;;;;;;;15.09;58.31;99123.91;5110382;28;20473;-78
2021/06/01 10:13:40;;;;;;;4.00;1.80;;;;;;;15.10;60.53;99122.72;5108772;28;20031;-79
2021/06/01 10:16:15;;;;;;;4.35;2.28;;;;;;;15.12;60.36;99122.34;5108873;28;20412;-74
2021/06/01 10:18:42;;;;;;;4.65;2.28;;;;;;;15.23;60.31;99114.91;5110043;28;20024;-74
2021/06/01 10:21:11;;;;;;;4.03;2.50;;;;;;;15.42;59.27;99116.03;5113778;28;20104;-73
2021/06/01 10:23:39;;;;;;;3.05;2.33;;;;;;;15.84;62.19;99114.25;5113756;28;20408;-79
2021/06/01 10:26:07;;;;;;;2.90;2.70;;;;;;;16.16;57.03;99113.97;5113404;28;20070;-74
2021/06/01 10:28:37;;;;;;;6.18;2.40;;;;;;;16.11;56.14;99115.09;5107046;28;20542;-74
2021/06/01 10:31:05;;;;;;;2.50;2.30;;;;;;;16.11;55.74;99103.03;5111674;28;20058;-75
2021/06/01 10:33:38;;;;;;;7.82;2.67;;;;;;;16.16;55.06;99104.66;5113654;28;20386;-75
2021/06/01 10:50:04;;;;;;;3.67;1.90;;;;;;;16.77;48.02;99082.03;5108890;28;20097;-78
2021/06/01 10:52:30;;;;;;;1.48;1.38;;;;;;;16.90;48.25;99074.09;5113321;28;20042;-75
2021/06/01 10:55:00;;;;;;;8.02;2.33;;;;;;;16.98;48.72;99082.25;5111789;28;20484;-75
2021/06/01 10:57:54;;;;;;;3.00;1.95;;;;;;;17.10;48.78;99083.19;5111137;28;20416;-74
2021/06/01 11:03:19;;;;;;;8.30;1.88;;;;;;;16.75;48.69;99071.13;5084775;28;20131;-79
2021/06/01 11:05:57;;;;;;;2.22;2.03;;;;;;;16.82;49.93;99068.38;5112903;28;20027;-79
2021/06/01 11:08:40;;;;;;;4.57;2.13;;;;;;;16.80;50.49;99072.81;5107612;28;20039;-79
2021/06/01 11:11:31;;;;;;;1.80;1.70;;;;;;;17.02;50.35;99067.41;5111730;28;20034;-79
2021/06/01 11:13:59;;;;;;;2.58;2.38;;;;;;;17.04;50.19;99057.31;5112765;28;20093;-81
2021/06/01 11:16:25;;;;;;;3.35;3.05;;;;;;;16.96;49.22;99061.25;5108220;28;20036;-76
2021/06/01 11:18:57;;;;;;;3.20;2.85;;;;;;;16.98;48.63;99051.19;5112675;28;20102;-76
2021/06/01 11:21:40;;;;;;;4.05;3.10;;;;;;;17.12;50.76;99061.00;5113045;28;20110;-82
2021/06/01 11:24:50;;;;;;;6.50;2.88;;;;;;;17.25;46.99;99059.53;5111393;28;20016;-80
2021/06/01 11:32:56;;;;;;;4.80;3.03;;;;;;;17.45;48.78;99067.75;5113090;28;20469;-76
2021/06/01 11:35:37;;;;;;;4.45;3.60;;;;;;;17.37;47.71;99066.06;5106460;28;20481;-81
2021/06/01 11:43:07;;;;;;;11.80;3.78;;;;;;;17.51;48.13;99066.22;5110592;28;20115;-82
2021/06/01 11:45:47;;;;;;;8.73;4.20;;;;;;;17.73;48.56;99062.72;5100967;28;20097;-76
2021/06/01 11:48:26;;;;;;;6.85;3.97;;;;;;;17.75;47.74;99066.78;5112314;28;20023;-78
2021/06/01 11:51:13;;;;;;;5.07;3.60;;;;;;;17.76;48.27;99073.22;5111448;28;20032;-73
2021/06/01 11:53:48;;;;;;;5.53;3.85;;;;;;;17.92;48.42;99072.94;5111005;28;20034;-73
2021/06/01 11:56:17;;;;;;;6.82;3.75;;;;;;;17.82;47.88;99080.94;5112035;28;20040;-78
2021/06/01 12:19:04;;;;;;;3.00;2.20;;;;;;;17.32;50.74;99095.53;5098062;28;20124;-74
2021/06/01 12:21:42;;;;;;;4.45;2.05;;;;;;;17.05;51.56;99095.66;5096836;28;20028;-79
2021/06/01 12:24:22;;;;;;;7.30;2.03;;;;;;;17.02;52.04;99104.13;5101443;28;20058;-73
2021/06/01 12:32:26;;;;;;;3.78;1.27;;;;;;;17.06;50.66;99113.44;5112254;28;20104;-74
2021/06/01 12:43:49;;;;;;;7.72;2.72;;;;;;;16.87;49.21;99108.78;5105355;28;20077;-78
2021/06/01 13:51:14;;;;;;;3.90;3.05;;;;;;;16.66;50.31;99122.28;5084166;28;20119;-71
2021/06/01 13:56:14;;;;;;;5.97;2.92;;;;;;;17.16;51.14;99126.03;5110608;28;20116;-71
2021/06/01 14:09:45;;;;;;;8.57;3.00;;;;;;;17.52;47.47;99130.03;5100995;28;20056;-72
2021/06/01 14:20:46;;;;;;;8.23;2.63;;;;;;;17.46;45.59;99136.44;5090757;28;20048;-73
2021/06/01 14:39:29;;;;;;;5.32;3.10;;;;;;;18.36;48.62;99139.94;5114081;28;20409;-73
2021/06/01 15:29:03;;;;;;;5.97;1.55;;;;;;;17.15;42.69;99176.13;5109558;28;20034;-72
2021/06/01 15:48:11;;;;;;;4.53;0.63;;;;;;;16.48;46.78;99195.44;5097183;28;20491;-72
2021/06/01 16:23:53;;;;;;;0.98;0.90;;;;;;;15.67;50.78;99214.28;5101202;28;20101;-72
2021/06/01 16:32:03;;;;;;;2.97;1.80;;;;;;;15.49;53.30;99226.06;5110584;28;20066;-73